クアラルンプール の空港の天気 - METARとTAF

クアラルンプール国際空港 ( WMKK / KUL ) - マレーシア スランゴール州セパン
飛行場実況気象(Metar)
観測時間04/21 08:00 MYT (04/21 00:00 UTC)
風向・風速静穏 0m/s
視程8000m
天気現象
少しの雲 雲底高度 520m
全天の4割程度の雲 雲底高度 4270m
全天の8割程度の雲 雲底高度 8530m
気温25℃
湿度94%
気圧1009hPa
METARWMKK 210000Z 00000KT 8000 FEW017CB SCT140 BKN280 25/24 Q1009 NOSIG
過去の天気等 Google飛行場航空写真 Wunderground天気予報

過去48時間のMETAR

飛行場予報(TAF)
発表時間: 4/21 07:00 MYT (4/20 23:00 UTC)
予報対象時間: 21日8時 MYT ~ 22日14時 MYT
風向・風速北 3m/s
視程8,000m
少しの雲 雲底高度 910m
21日14時 MYT ~ 21日18時 MYT に一時的に
風向・風速東北東 8m/s 瞬間風速 13m/s
視程2,000m
天気現象雷雨
少しの積乱雲 雲底高度 520m
全天の4割程度の雲 雲底高度 610m
21日20時 MYT ~ 21日24時 MYT に 確率 30% で一時的に
視程4,000m
天気現象弱い雷雨
少しの積乱雲 雲底高度 460m
全天の4割程度の雲 雲底高度 550m
TAF WMKK 202300Z 2100/2206 01005KT 8000 FEW030
TEMPO 2106/2110 07015G25KT 2000 TSRA FEW017CB SCT020
PROB30 TEMPO 2112/2116 4000 -TSRA FEW015CB SCT018